createdAt,value
2023-02-27T00:02:01.417Z,1.90
2023-02-27T00:04:28.427Z,1.87
2023-02-27T00:06:55.524Z,2.03
2023-02-27T00:09:22.230Z,2.10
2023-02-27T00:11:49.029Z,1.80
2023-02-27T00:14:15.855Z,2.20
2023-02-27T00:16:42.614Z,2.20
2023-02-27T00:19:09.303Z,3.40
2023-02-27T00:21:36.945Z,2.73
2023-02-27T00:24:04.502Z,2.50
2023-02-27T00:26:31.322Z,2.70
2023-02-27T00:28:58.065Z,3.10
2023-02-27T00:31:25.268Z,3.07
2023-02-27T00:33:52.246Z,3.10
2023-02-27T00:36:19.022Z,3.20
2023-02-27T00:39:05.294Z,3.07
2023-02-27T00:41:32.130Z,2.70
2023-02-27T00:43:59.018Z,2.70
2023-02-27T00:46:25.825Z,2.53
2023-02-27T00:48:52.549Z,2.10
2023-02-27T00:51:20.356Z,2.97
2023-02-27T00:53:47.108Z,3.10
2023-02-27T00:56:15.027Z,3.10
2023-02-27T00:58:41.918Z,3.27
2023-02-27T01:01:08.874Z,2.40
2023-02-27T01:03:35.672Z,2.10
2023-02-27T01:06:02.549Z,2.93
2023-02-27T01:08:29.321Z,2.33
2023-02-27T01:10:57.201Z,2.40
2023-02-27T01:13:24.043Z,2.17
2023-02-27T01:15:50.850Z,2.17
2023-02-27T01:18:17.563Z,2.53
2023-02-27T01:20:44.367Z,2.70
2023-02-27T01:23:31.697Z,2.33
2023-02-27T01:25:58.472Z,2.10
2023-02-27T01:28:27.124Z,2.50
2023-02-27T01:30:53.957Z,2.70
2023-02-27T01:33:20.956Z,2.20
2023-02-27T01:35:47.757Z,2.27
2023-02-27T01:38:14.473Z,2.50
2023-02-27T01:40:43.016Z,3.53
2023-02-27T01:43:15.844Z,2.40
2023-02-27T01:45:47.846Z,2.93
2023-02-27T01:48:39.360Z,2.63
2023-02-27T01:51:13.886Z,2.07
2023-02-27T01:53:44.742Z,3.03
2023-02-27T01:56:18.010Z,2.53
2023-02-27T01:58:47.805Z,2.20
2023-02-27T02:01:16.131Z,2.10
2023-02-27T02:03:54.255Z,2.70
2023-02-27T02:06:21.451Z,1.90
2023-02-27T02:08:50.410Z,1.60
2023-02-27T02:11:20.380Z,2.73
2023-02-27T02:13:51.250Z,2.13
2023-02-27T02:16:43.443Z,2.17
2023-02-27T02:19:25.405Z,2.37
2023-02-27T02:22:22.971Z,2.00
2023-02-27T02:25:12.820Z,2.03
2023-02-27T02:27:45.353Z,1.70
2023-02-27T02:30:30.935Z,1.73
2023-02-27T02:33:16.316Z,1.43
2023-02-27T02:36:21.360Z,1.93
2023-02-27T02:39:12.067Z,1.40
2023-02-27T02:42:03.953Z,1.47
2023-02-27T02:44:31.264Z,1.73
2023-02-27T02:47:16.585Z,1.70
2023-02-27T02:49:56.951Z,1.67
2023-02-27T02:52:36.102Z,1.30
2023-02-27T02:55:23.695Z,1.40
2023-02-27T02:58:29.168Z,1.63
2023-02-27T03:01:14.217Z,1.43
2023-02-27T03:03:58.902Z,1.17
2023-02-27T03:06:31.614Z,1.37
2023-02-27T03:09:04.624Z,2.00
2023-02-27T03:11:36.396Z,1.70
2023-02-27T03:16:54.516Z,1.07
2023-02-27T03:19:25.731Z,1.30
2023-02-27T03:22:11.053Z,1.77
2023-02-27T03:24:46.659Z,1.53
2023-02-27T03:27:16.473Z,1.70
2023-02-27T03:30:10.489Z,1.40
2023-02-27T03:32:56.886Z,1.60
2023-02-27T03:35:45.502Z,1.40
2023-02-27T03:38:31.846Z,1.93
2023-02-27T03:41:08.722Z,1.90
2023-02-27T03:44:08.888Z,1.80
2023-02-27T03:46:36.452Z,1.77
2023-02-27T03:49:04.136Z,1.80
2023-02-27T03:51:33.888Z,1.70
2023-02-27T03:54:11.006Z,1.63
2023-02-27T03:57:20.924Z,1.40
2023-02-27T03:59:48.120Z,1.80
2023-02-27T04:02:16.357Z,1.27
2023-02-27T04:04:43.480Z,1.50
2023-02-27T04:07:57.738Z,1.50
2023-02-27T04:10:55.510Z,1.30
2023-02-27T04:13:27.816Z,1.30
2023-02-27T04:16:12.006Z,1.27
2023-02-27T04:18:56.491Z,1.40
2023-02-27T04:21:45.119Z,1.20
2023-02-27T04:24:23.668Z,1.47
2023-02-27T04:26:56.476Z,1.20
2023-02-27T04:29:37.721Z,1.10
2023-02-27T04:32:26.283Z,1.40
2023-02-27T04:35:01.894Z,1.67
2023-02-27T04:37:53.804Z,0.83
2023-02-27T04:40:36.748Z,0.90
2023-02-27T04:43:05.885Z,1.00
2023-02-27T04:45:38.376Z,0.80
2023-02-27T04:48:12.031Z,0.80
2023-02-27T04:51:03.711Z,1.23
2023-02-27T04:53:55.412Z,0.77
2023-02-27T04:56:32.573Z,1.40
2023-02-27T04:59:05.740Z,0.97
2023-02-27T05:01:43.683Z,0.90
2023-02-27T05:04:16.005Z,1.87
2023-02-27T05:06:47.303Z,0.80
2023-02-27T05:09:49.363Z,0.83
2023-02-27T05:12:39.723Z,0.97
2023-02-27T05:15:13.999Z,0.97
2023-02-27T05:17:55.450Z,1.27
2023-02-27T05:20:29.516Z,0.93
2023-02-27T05:23:15.659Z,1.60
2023-02-27T05:25:50.999Z,0.93
2023-02-27T05:28:23.651Z,0.50
2023-02-27T05:31:03.241Z,0.97
2023-02-27T05:33:35.544Z,1.50
2023-02-27T05:36:15.721Z,1.40
2023-02-27T05:38:48.269Z,0.70
2023-02-27T05:41:21.798Z,1.20
2023-02-27T05:44:11.839Z,1.10
2023-02-27T05:46:44.513Z,1.30
2023-02-27T05:49:20.574Z,0.80
2023-02-27T05:51:51.496Z,0.87
2023-02-27T05:54:42.342Z,0.97
2023-02-27T05:57:14.497Z,0.87
2023-02-27T05:59:50.116Z,0.87
2023-02-27T06:02:35.581Z,0.87
2023-02-27T06:05:02.491Z,1.03
2023-02-27T06:07:31.894Z,1.13
2023-02-27T06:09:58.991Z,1.10
2023-02-27T06:12:44.182Z,0.80
2023-02-27T06:15:12.156Z,1.00
2023-02-27T06:17:39.221Z,1.10
2023-02-27T06:20:07.500Z,0.80
2023-02-27T06:22:34.577Z,1.20
2023-02-27T06:25:01.392Z,1.30
2023-02-27T06:27:28.161Z,1.27
2023-02-27T06:30:13.858Z,0.70
2023-02-27T06:32:40.669Z,0.90
2023-02-27T06:35:07.934Z,0.87
2023-02-27T06:37:34.848Z,1.17
2023-02-27T06:40:01.599Z,0.83
2023-02-27T06:42:28.461Z,0.87
2023-02-27T06:44:56.019Z,1.13
2023-02-27T06:47:22.906Z,0.77
2023-02-27T06:49:49.736Z,0.90
2023-02-27T06:52:16.478Z,0.70
2023-02-27T06:54:43.205Z,1.30
2023-02-27T06:57:09.912Z,0.97
2023-02-27T06:59:55.749Z,1.43
2023-02-27T07:02:24.056Z,1.73
2023-02-27T07:05:09.631Z,1.37
2023-02-27T07:07:38.744Z,1.07
2023-02-27T07:10:25.127Z,2.00
2023-02-27T07:12:51.921Z,1.83
2023-02-27T07:15:18.745Z,1.10
2023-02-27T07:17:45.535Z,1.10
2023-02-27T07:20:12.851Z,1.20
2023-02-27T07:22:41.145Z,1.00
2023-02-27T07:25:09.059Z,1.73
2023-02-27T07:27:35.890Z,1.10
2023-02-27T07:30:02.725Z,1.23
2023-02-27T07:32:29.619Z,1.00
2023-02-27T07:34:56.360Z,1.37
2023-02-27T07:37:23.116Z,1.83
2023-02-27T07:40:09.090Z,1.27
2023-02-27T07:42:35.971Z,1.20
2023-02-27T07:45:02.835Z,1.50
2023-02-27T07:47:48.167Z,1.10
2023-02-27T07:50:15.079Z,1.23
2023-02-27T07:52:48.919Z,0.93
2023-02-27T07:55:34.332Z,1.83
2023-02-27T07:58:01.238Z,1.37
2023-02-27T08:00:28.213Z,1.00
2023-02-27T08:02:55.070Z,1.37
2023-02-27T08:05:22.024Z,1.23
2023-02-27T08:07:48.868Z,1.03
2023-02-27T08:10:16.781Z,0.97
2023-02-27T08:12:44.845Z,1.13
2023-02-27T08:15:12.099Z,1.17
2023-02-27T08:17:39.052Z,1.53
2023-02-27T08:20:07.420Z,2.57
2023-02-27T08:22:34.313Z,1.00
2023-02-27T08:25:01.319Z,1.13
2023-02-27T08:27:28.246Z,0.70
2023-02-27T08:29:55.140Z,1.13
2023-02-27T08:32:22.134Z,1.17
2023-02-27T08:34:48.941Z,1.07
2023-02-27T08:37:15.637Z,1.10
2023-02-27T08:39:42.557Z,1.23
2023-02-27T08:42:27.800Z,1.10
2023-02-27T08:44:54.623Z,1.50
2023-02-27T08:47:21.321Z,1.23
2023-02-27T08:49:48.110Z,1.37
2023-02-27T08:52:14.860Z,1.17
2023-02-27T08:54:41.652Z,1.63
2023-02-27T08:57:08.607Z,2.00
2023-02-27T08:59:35.602Z,1.63
2023-02-27T09:02:02.393Z,0.90
2023-02-27T09:04:29.370Z,1.60
2023-02-27T09:06:57.433Z,1.10
2023-02-27T09:09:24.449Z,1.40
2023-02-27T09:11:51.858Z,1.40
2023-02-27T09:14:19.507Z,1.57
2023-02-27T09:16:46.437Z,1.20
2023-02-27T09:19:14.497Z,1.40
2023-02-27T09:21:42.633Z,1.47
2023-02-27T09:24:19.049Z,1.53
2023-02-27T09:26:47.075Z,1.67
2023-02-27T09:29:14.163Z,1.30
2023-02-27T09:31:40.951Z,1.30
2023-02-27T09:34:07.950Z,1.57
2023-02-27T09:36:35.065Z,1.37
2023-02-27T09:39:01.860Z,1.20
2023-02-27T09:41:50.039Z,1.90
2023-02-27T09:44:47.144Z,1.97
2023-02-27T09:50:41.402Z,1.63
2023-02-27T09:53:27.204Z,1.17
2023-02-27T09:56:05.948Z,1.20
2023-02-27T09:58:47.769Z,1.60
2023-02-27T10:01:36.149Z,2.43
2023-02-27T10:04:11.826Z,2.17
2023-02-27T10:06:50.685Z,1.27
2023-02-27T10:09:40.880Z,1.30
2023-02-27T10:12:13.695Z,1.97
2023-02-27T10:14:49.555Z,1.20
2023-02-27T10:17:33.463Z,1.33
2023-02-27T10:20:04.656Z,1.70
2023-02-27T10:22:36.405Z,1.33
2023-02-27T10:25:31.846Z,1.17
2023-02-27T10:28:11.216Z,1.27
2023-02-27T10:30:38.241Z,1.80
2023-02-27T10:33:15.811Z,1.37
2023-02-27T10:35:45.502Z,1.60
2023-02-27T10:38:20.556Z,1.57
2023-02-27T10:40:48.722Z,1.30
2023-02-27T10:43:19.219Z,1.33
2023-02-27T10:45:46.151Z,1.30
2023-02-27T10:48:14.686Z,1.90
2023-02-27T10:50:44.335Z,1.20
2023-02-27T10:53:21.732Z,1.13
2023-02-27T10:56:02.900Z,1.47
2023-02-27T10:58:35.113Z,1.50
2023-02-27T11:01:08.199Z,1.20
2023-02-27T11:03:41.526Z,1.30
2023-02-27T11:06:33.134Z,1.23
2023-02-27T11:09:24.683Z,1.23
2023-02-27T11:11:51.997Z,1.40
2023-02-27T11:14:26.400Z,1.80
2023-02-27T11:16:55.541Z,1.23
2023-02-27T11:19:37.163Z,2.30
2023-02-27T11:22:25.891Z,5.67
2023-02-27T11:25:09.760Z,1.43
2023-02-27T11:27:36.569Z,1.63
2023-02-27T11:30:22.644Z,1.60
2023-02-27T11:35:38.837Z,2.67
2023-02-27T11:38:19.379Z,1.60
2023-02-27T11:40:53.863Z,1.83
2023-02-27T11:43:24.197Z,2.13
2023-02-27T11:46:05.245Z,2.10
2023-02-27T11:49:13.751Z,1.57
2023-02-27T11:52:17.956Z,0.87
2023-02-27T11:55:01.333Z,1.60
2023-02-27T11:57:36.062Z,4.17
2023-02-27T12:00:16.031Z,1.50
2023-02-27T12:02:47.102Z,1.40
2023-02-27T12:05:30.651Z,1.03
2023-02-27T12:08:05.770Z,2.13
2023-02-27T12:10:45.899Z,8.87
2023-02-27T12:13:21.785Z,2.43
2023-02-27T12:15:57.846Z,1.63
2023-02-27T12:18:39.868Z,2.17
2023-02-27T12:21:12.013Z,7.07
2023-02-27T12:24:09.781Z,2.73
2023-02-27T12:26:39.959Z,1.80
2023-02-27T12:29:35.540Z,1.50
2023-02-27T12:32:19.876Z,1.60
2023-02-27T12:35:02.126Z,1.30
2023-02-27T12:37:30.571Z,1.27
2023-02-27T12:40:00.936Z,1.20
2023-02-27T12:42:33.815Z,1.37
2023-02-27T12:45:12.529Z,1.70
2023-02-27T12:47:55.547Z,1.20
2023-02-27T12:50:24.630Z,1.07
2023-02-27T12:52:57.102Z,1.53
2023-02-27T12:55:28.202Z,1.30
2023-02-27T12:58:35.002Z,1.40
2023-02-27T13:01:37.400Z,1.93
2023-02-27T13:04:24.372Z,3.20
2023-02-27T13:07:47.837Z,1.33
2023-02-27T13:10:21.385Z,1.63
2023-02-27T13:12:57.415Z,1.20
2023-02-27T13:15:31.236Z,1.40
2023-02-27T13:18:28.620Z,0.80
2023-02-27T13:21:03.367Z,1.37
2023-02-27T13:23:47.830Z,2.70
2023-02-27T13:26:22.853Z,1.37
2023-02-27T13:28:51.623Z,1.73
2023-02-27T13:31:29.815Z,1.97
2023-02-27T13:34:06.964Z,1.87
2023-02-27T13:36:42.477Z,2.80
2023-02-27T13:39:51.876Z,1.83
2023-02-27T13:42:27.479Z,1.73
2023-02-27T13:47:49.825Z,1.53
2023-02-27T13:50:21.313Z,1.43
2023-02-27T13:52:48.664Z,1.63
2023-02-27T13:55:37.746Z,3.00
2023-02-27T13:58:05.869Z,1.63
2023-02-27T14:00:35.005Z,1.20
2023-02-27T14:03:08.899Z,1.23
2023-02-27T14:05:42.727Z,1.40
2023-02-27T14:08:21.230Z,2.63
2023-02-27T14:11:12.633Z,1.47
2023-02-27T14:13:45.416Z,1.53
2023-02-27T14:16:38.352Z,1.30
2023-02-27T14:19:17.829Z,1.10
2023-02-27T14:22:01.191Z,0.80
2023-02-27T14:24:31.703Z,0.90
2023-02-27T14:27:00.261Z,0.80
2023-02-27T14:29:47.998Z,1.27
2023-02-27T14:32:40.321Z,1.33
2023-02-27T14:35:26.463Z,1.53
2023-02-27T14:37:54.126Z,1.40
2023-02-27T14:40:43.652Z,1.00
2023-02-27T14:43:22.183Z,0.63
2023-02-27T14:45:49.546Z,0.93
2023-02-27T14:48:26.897Z,1.57
2023-02-27T14:50:54.742Z,0.87
2023-02-27T14:53:26.576Z,1.97
2023-02-27T15:01:35.933Z,1.70
2023-02-27T15:04:05.736Z,1.10
2023-02-27T15:07:11.383Z,1.33
2023-02-27T15:09:59.111Z,1.00
2023-02-27T15:12:28.064Z,1.10
2023-02-27T15:15:01.458Z,0.90
2023-02-27T15:17:37.773Z,1.07
2023-02-27T15:20:24.673Z,0.97
2023-02-27T15:22:51.564Z,1.13
2023-02-27T15:25:56.134Z,1.00
2023-02-27T15:28:25.981Z,0.90
2023-02-27T15:30:55.505Z,1.10
2023-02-27T15:33:29.354Z,1.23
2023-02-27T15:35:57.227Z,1.00
2023-02-27T15:38:42.961Z,1.73
2023-02-27T15:43:58.911Z,0.90
2023-02-27T15:46:26.606Z,0.67
2023-02-27T15:48:55.014Z,1.23
2023-02-27T15:51:21.812Z,1.20
2023-02-27T15:53:50.459Z,1.33
2023-02-27T15:56:21.066Z,2.13
2023-02-27T16:01:53.787Z,2.10
2023-02-27T16:04:26.356Z,1.87
2023-02-27T16:07:15.731Z,0.90
2023-02-27T16:09:44.051Z,1.90
2023-02-27T16:12:33.180Z,1.90
2023-02-27T16:15:27.186Z,1.53
2023-02-27T16:18:03.422Z,2.10
2023-02-27T16:20:55.786Z,1.00
2023-02-27T16:23:31.939Z,1.13
2023-02-27T16:26:25.013Z,1.50
2023-02-27T16:29:04.564Z,1.23
2023-02-27T16:31:39.959Z,2.13
2023-02-27T16:34:26.142Z,1.60
2023-02-27T16:37:00.976Z,2.80
2023-02-27T16:39:28.342Z,1.63
2023-02-27T16:41:56.742Z,2.23
2023-02-27T16:44:24.515Z,1.53
2023-02-27T16:46:56.074Z,0.90
2023-02-27T16:49:29.176Z,1.60
2023-02-27T16:51:56.849Z,0.93
2023-02-27T16:54:24.050Z,1.77
2023-02-27T16:56:51.686Z,3.40
2023-02-27T16:59:29.168Z,2.23
2023-02-27T17:02:01.057Z,1.40
2023-02-27T17:04:29.096Z,2.77
2023-02-27T17:06:58.453Z,2.10
2023-02-27T17:09:45.773Z,2.37
2023-02-27T17:12:13.290Z,2.27
2023-02-27T17:14:39.998Z,3.10
2023-02-27T17:17:07.132Z,3.07
2023-02-27T17:19:34.586Z,1.87
2023-02-27T17:22:01.391Z,2.07
2023-02-27T17:24:28.135Z,1.67
2023-02-27T17:26:55.076Z,2.10
2023-02-27T17:29:22.591Z,1.27
2023-02-27T17:31:49.740Z,1.73
2023-02-27T17:34:16.943Z,1.40
2023-02-27T17:36:44.079Z,2.00
2023-02-27T17:39:14.979Z,1.37
2023-02-27T17:41:43.811Z,1.43
2023-02-27T17:44:13.971Z,1.70
2023-02-27T17:46:41.281Z,1.50
2023-02-27T17:49:08.226Z,3.00
2023-02-27T17:51:35.438Z,2.10
2023-02-27T17:54:04.958Z,1.80
2023-02-27T17:56:32.416Z,1.47
2023-02-27T17:58:59.320Z,1.93
2023-02-27T18:01:26.687Z,1.70
2023-02-27T18:03:54.828Z,1.20
2023-02-27T18:06:22.362Z,1.60
2023-02-27T18:09:07.803Z,1.33
2023-02-27T18:11:34.660Z,1.90
2023-02-27T18:14:01.510Z,1.27
2023-02-27T18:16:28.628Z,1.80
2023-02-27T18:18:55.633Z,1.50
2023-02-27T18:21:24.505Z,1.73
2023-02-27T18:23:52.018Z,2.10
2023-02-27T18:26:29.518Z,1.33
2023-02-27T18:29:02.620Z,1.80
2023-02-27T18:31:32.831Z,1.43
2023-02-27T18:34:00.640Z,1.47
2023-02-27T18:36:28.533Z,1.60
2023-02-27T18:38:55.615Z,1.40
2023-02-27T18:41:22.597Z,1.40
2023-02-27T18:43:49.770Z,1.67
2023-02-27T18:46:16.894Z,1.90
2023-02-27T18:48:44.689Z,2.07
2023-02-27T18:51:14.787Z,2.00
2023-02-27T18:53:44.357Z,1.40
2023-02-27T18:56:12.114Z,1.67
2023-02-27T18:58:39.493Z,1.30
2023-02-27T19:01:07.395Z,1.77
2023-02-27T19:03:35.914Z,1.80
2023-02-27T19:06:02.931Z,1.80
2023-02-27T19:08:29.783Z,2.27
2023-02-27T19:10:57.714Z,1.83
2023-02-27T19:13:25.648Z,2.97
2023-02-27T19:15:53.214Z,4.10
2023-02-27T19:18:20.514Z,9.37
2023-02-27T19:21:05.894Z,11.93
2023-02-27T19:23:32.722Z,6.37
2023-02-27T19:26:01.720Z,9.10
2023-02-27T19:28:28.797Z,10.57
2023-02-27T19:30:55.825Z,8.53
2023-02-27T19:33:22.664Z,5.90
2023-02-27T19:35:49.469Z,6.87
2023-02-27T19:38:16.236Z,7.30
2023-02-27T19:40:43.034Z,8.67
2023-02-27T19:43:09.832Z,6.53
2023-02-27T19:45:40.659Z,5.37
2023-02-27T19:48:26.306Z,6.23
2023-02-27T19:50:53.158Z,5.67
2023-02-27T19:53:19.865Z,4.00
2023-02-27T19:55:47.169Z,3.17
2023-02-27T19:58:13.872Z,2.90
2023-02-27T20:00:40.907Z,4.00
2023-02-27T20:03:07.682Z,4.73
2023-02-27T20:05:38.429Z,6.20
2023-02-27T20:08:05.594Z,5.40
2023-02-27T20:10:32.804Z,5.60
2023-02-27T20:12:59.777Z,12.40
2023-02-27T20:15:26.494Z,6.60
2023-02-27T20:17:53.295Z,6.20
2023-02-27T20:20:20.128Z,5.43
2023-02-27T20:22:47.271Z,4.03
2023-02-27T20:25:14.066Z,3.60
2023-02-27T20:27:41.109Z,3.40
2023-02-27T20:30:26.913Z,3.80
2023-02-27T20:32:55.175Z,4.33
2023-02-27T20:35:22.114Z,5.87
2023-02-27T20:43:18.042Z,4.40
2023-02-27T20:45:44.798Z,4.00
2023-02-27T20:48:11.549Z,4.00
2023-02-27T20:50:38.423Z,4.83
2023-02-27T20:53:05.292Z,4.70
2023-02-27T20:55:32.220Z,3.97
2023-02-27T20:57:59.018Z,4.63
2023-02-27T21:00:26.858Z,3.87
2023-02-27T21:02:54.281Z,4.77
2023-02-27T21:05:21.053Z,5.10
2023-02-27T21:07:47.852Z,5.90
2023-02-27T21:10:14.609Z,4.30
2023-02-27T21:12:41.421Z,4.77
2023-02-27T21:15:08.456Z,4.27
2023-02-27T21:17:35.232Z,3.80
2023-02-27T21:20:06.753Z,3.10
2023-02-27T21:22:34.614Z,2.57
2023-02-27T21:25:01.468Z,2.80
2023-02-27T21:27:28.292Z,4.50
2023-02-27T21:29:55.005Z,4.53
2023-02-27T21:33:04.021Z,4.20
2023-02-27T21:35:31.154Z,3.40
2023-02-27T21:37:57.989Z,4.73
2023-02-27T21:40:24.787Z,5.27
2023-02-27T21:42:52.995Z,4.60
2023-02-27T21:45:20.678Z,3.97
2023-02-27T21:47:47.437Z,3.43
2023-02-27T21:50:14.335Z,3.07
2023-02-27T21:52:42.560Z,2.83
2023-02-27T21:55:11.531Z,3.40
2023-02-27T21:57:40.052Z,4.27
2023-02-27T22:00:11.323Z,3.13
2023-02-27T22:02:39.360Z,3.47
2023-02-27T22:05:07.000Z,2.90
2023-02-27T22:07:33.771Z,2.63
2023-02-27T22:10:00.607Z,2.40
2023-02-27T22:12:27.444Z,2.20
2023-02-27T22:14:54.176Z,2.67
2023-02-27T22:17:20.944Z,1.87
2023-02-27T22:19:47.947Z,2.17
2023-02-27T22:22:14.748Z,1.83
2023-02-27T22:24:42.133Z,1.60
2023-02-27T22:27:09.420Z,1.37
2023-02-27T22:29:38.197Z,1.60
2023-02-27T22:32:06.616Z,1.60
2023-02-27T22:34:33.495Z,1.37
2023-02-27T22:37:00.404Z,1.13
2023-02-27T22:39:27.132Z,1.40
2023-02-27T22:41:55.934Z,1.20
2023-02-27T22:44:42.052Z,1.33
2023-02-27T22:47:09.435Z,2.10
2023-02-27T22:49:37.191Z,2.17
2023-02-27T22:52:04.171Z,2.10
2023-02-27T22:54:31.361Z,1.63
2023-02-27T22:56:58.369Z,2.03
2023-02-27T22:59:25.993Z,1.30
2023-02-27T23:01:54.082Z,1.30
2023-02-27T23:04:22.236Z,1.50
2023-02-27T23:06:51.562Z,1.47
2023-02-27T23:09:22.400Z,1.20
2023-02-27T23:11:49.155Z,1.30
2023-02-27T23:14:16.124Z,1.53
2023-02-27T23:16:45.804Z,1.40
2023-02-27T23:24:47.508Z,1.00
2023-02-27T23:27:25.385Z,1.40
2023-02-27T23:29:52.560Z,1.27
2023-02-27T23:32:19.485Z,1.10
2023-02-27T23:34:49.676Z,0.90
2023-02-27T23:37:16.850Z,1.60
2023-02-27T23:39:43.635Z,1.57
2023-02-27T23:42:10.608Z,1.10
2023-02-27T23:44:37.365Z,1.40
2023-02-27T23:47:04.215Z,1.57
2023-02-27T23:49:31.045Z,0.90
2023-02-27T23:51:57.852Z,1.40
2023-02-27T23:54:24.597Z,1.47
2023-02-27T23:56:51.317Z,1.10
2023-02-27T23:59:18.091Z,1.37
